sensor_id;sensor_type;location;lat;lon;timestamp;P1;durP1;ratioP1;P2;durP2;ratioP2
23400;SDS011;11873;49.300;8.920;2023-04-24T00:03:18;1.10;;;1.00;;
23400;SDS011;11873;49.300;8.920;2023-04-24T00:08:18;3.87;;;1.15;;
23400;SDS011;11873;49.300;8.920;2023-04-24T00:13:18;1.33;;;1.10;;
23400;SDS011;11873;49.300;8.920;2023-04-24T00:18:18;1.23;;;0.80;;
23400;SDS011;11873;49.300;8.920;2023-04-24T00:23:19;1.20;;;0.77;;
23400;SDS011;11873;49.300;8.920;2023-04-24T00:28:19;0.90;;;0.90;;
23400;SDS011;11873;49.300;8.920;2023-04-24T00:33:19;1.03;;;0.90;;
23400;SDS011;11873;49.300;8.920;2023-04-24T00:38:19;0.87;;;0.80;;
23400;SDS011;11873;49.300;8.920;2023-04-24T00:43:19;2.00;;;0.80;;
23400;SDS011;11873;49.300;8.920;2023-04-24T00:48:20;0.83;;;0.83;;
23400;SDS011;11873;49.300;8.920;2023-04-24T00:53:20;2.50;;;1.00;;
23400;SDS011;11873;49.300;8.920;2023-04-24T00:58:20;2.30;;;0.90;;
23400;SDS011;11873;49.300;8.920;2023-04-24T01:03:21;0.67;;;0.67;;
23400;SDS011;11873;49.300;8.920;2023-04-24T01:08:25;1.80;;;0.80;;
23400;SDS011;11873;49.300;8.920;2023-04-24T01:13:26;0.87;;;0.87;;
23400;SDS011;11873;49.300;8.920;2023-04-24T01:18:27;1.87;;;0.90;;
23400;SDS011;11873;49.300;8.920;2023-04-24T01:23:27;0.83;;;0.77;;
23400;SDS011;11873;49.300;8.920;2023-04-24T01:28:27;0.60;;;0.60;;
23400;SDS011;11873;49.300;8.920;2023-04-24T01:33:27;0.70;;;0.70;;
23400;SDS011;11873;49.300;8.920;2023-04-24T01:38:28;0.70;;;0.70;;
23400;SDS011;11873;49.300;8.920;2023-04-24T01:43:28;2.57;;;0.97;;
23400;SDS011;11873;49.300;8.920;2023-04-24T01:48:28;0.93;;;0.70;;
23400;SDS011;11873;49.300;8.920;2023-04-24T01:53:29;1.55;;;0.90;;
23400;SDS011;11873;49.300;8.920;2023-04-24T01:58:29;2.20;;;1.00;;
23400;SDS011;11873;49.300;8.920;2023-04-24T02:03:29;1.30;;;0.70;;
23400;SDS011;11873;49.300;8.920;2023-04-24T02:08:29;0.70;;;0.70;;
23400;SDS011;11873;49.300;8.920;2023-04-24T02:13:29;0.70;;;0.70;;
23400;SDS011;11873;49.300;8.920;2023-04-24T02:18:30;0.70;;;0.70;;
23400;SDS011;11873;49.300;8.920;2023-04-24T02:23:30;0.70;;;0.70;;
23400;SDS011;11873;49.300;8.920;2023-04-24T02:28:30;1.17;;;0.70;;
23400;SDS011;11873;49.300;8.920;2023-04-24T02:33:30;2.40;;;0.67;;
23400;SDS011;11873;49.300;8.920;2023-04-24T02:38:30;0.70;;;0.70;;
23400;SDS011;11873;49.300;8.920;2023-04-24T02:43:30;1.23;;;0.90;;
23400;SDS011;11873;49.300;8.920;2023-04-24T02:48:31;1.07;;;0.80;;
23400;SDS011;11873;49.300;8.920;2023-04-24T02:53:31;2.00;;;0.90;;
23400;SDS011;11873;49.300;8.920;2023-04-24T02:58:31;0.70;;;0.70;;
23400;SDS011;11873;49.300;8.920;2023-04-24T03:03:31;0.80;;;0.80;;
23400;SDS011;11873;49.300;8.920;2023-04-24T03:08:32;1.70;;;1.00;;
23400;SDS011;11873;49.300;8.920;2023-04-24T03:13:32;0.73;;;0.60;;
23400;SDS011;11873;49.300;8.920;2023-04-24T03:18:32;0.60;;;0.60;;
23400;SDS011;11873;49.300;8.920;2023-04-24T03:23:32;0.70;;;0.70;;
23400;SDS011;11873;49.300;8.920;2023-04-24T03:28:32;0.97;;;0.80;;
23400;SDS011;11873;49.300;8.920;2023-04-24T03:33:32;3.10;;;0.90;;
23400;SDS011;11873;49.300;8.920;2023-04-24T03:38:33;0.73;;;0.60;;
23400;SDS011;11873;49.300;8.920;2023-04-24T03:43:33;1.23;;;0.60;;
23400;SDS011;11873;49.300;8.920;2023-04-24T03:48:33;1.10;;;0.87;;
23400;SDS011;11873;49.300;8.920;2023-04-24T03:53:33;0.93;;;0.87;;
23400;SDS011;11873;49.300;8.920;2023-04-24T03:58:33;1.17;;;0.90;;
23400;SDS011;11873;49.300;8.920;2023-04-24T04:03:34;1.40;;;0.90;;
23400;SDS011;11873;49.300;8.920;2023-04-24T04:08:34;0.97;;;0.93;;
23400;SDS011;11873;49.300;8.920;2023-04-24T04:13:34;1.93;;;0.90;;
23400;SDS011;11873;49.300;8.920;2023-04-24T04:18:34;0.90;;;0.90;;
23400;SDS011;11873;49.300;8.920;2023-04-24T04:23:34;2.20;;;1.00;;
23400;SDS011;11873;49.300;8.920;2023-04-24T04:28:34;0.93;;;0.93;;
23400;SDS011;11873;49.300;8.920;2023-04-24T04:33:35;1.33;;;1.10;;
23400;SDS011;11873;49.300;8.920;2023-04-24T04:38:35;1.40;;;1.30;;
23400;SDS011;11873;49.300;8.920;2023-04-24T04:43:35;1.47;;;1.37;;
23400;SDS011;11873;49.300;8.920;2023-04-24T04:48:35;2.50;;;2.30;;
23400;SDS011;11873;49.300;8.920;2023-04-24T04:53:35;2.40;;;1.27;;
23400;SDS011;11873;49.300;8.920;2023-04-24T04:58:35;1.30;;;1.20;;
23400;SDS011;11873;49.300;8.920;2023-04-24T05:03:36;1.37;;;1.10;;
23400;SDS011;11873;49.300;8.920;2023-04-24T05:08:36;1.40;;;1.30;;
23400;SDS011;11873;49.300;8.920;2023-04-24T05:13:36;1.53;;;1.20;;
23400;SDS011;11873;49.300;8.920;2023-04-24T05:18:36;1.87;;;1.47;;
23400;SDS011;11873;49.300;8.920;2023-04-24T05:23:36;1.40;;;1.40;;
23400;SDS011;11873;49.300;8.920;2023-04-24T05:28:36;1.50;;;1.40;;
23400;SDS011;11873;49.300;8.920;2023-04-24T05:33:37;1.80;;;1.60;;
23400;SDS011;11873;49.300;8.920;2023-04-24T05:38:37;1.37;;;1.37;;
23400;SDS011;11873;49.300;8.920;2023-04-24T05:43:37;3.00;;;2.07;;
23400;SDS011;11873;49.300;8.920;2023-04-24T05:48:37;2.40;;;1.60;;
23400;SDS011;11873;49.300;8.920;2023-04-24T05:53:37;1.70;;;1.53;;
23400;SDS011;11873;49.300;8.920;2023-04-24T05:58:38;1.70;;;1.60;;
23400;SDS011;11873;49.300;8.920;2023-04-24T06:03:38;1.50;;;1.40;;
23400;SDS011;11873;49.300;8.920;2023-04-24T06:08:38;1.80;;;1.53;;
23400;SDS011;11873;49.300;8.920;2023-04-24T06:13:38;1.20;;;1.20;;
23400;SDS011;11873;49.300;8.920;2023-04-24T06:18:38;6.00;;;4.57;;
23400;SDS011;11873;49.300;8.920;2023-04-24T06:23:39;1.80;;;1.70;;
23400;SDS011;11873;49.300;8.920;2023-04-24T06:28:39;1.70;;;1.60;;
23400;SDS011;11873;49.300;8.920;2023-04-24T06:33:39;2.33;;;2.13;;
23400;SDS011;11873;49.300;8.920;2023-04-24T06:38:39;1.57;;;1.43;;
23400;SDS011;11873;49.300;8.920;2023-04-24T06:43:39;1.70;;;1.60;;
23400;SDS011;11873;49.300;8.920;2023-04-24T06:48:39;2.10;;;1.70;;
23400;SDS011;11873;49.300;8.920;2023-04-24T06:53:40;2.33;;;1.97;;
23400;SDS011;11873;49.300;8.920;2023-04-24T06:58:40;1.97;;;1.73;;
23400;SDS011;11873;49.300;8.920;2023-04-24T07:03:40;1.70;;;1.60;;
23400;SDS011;11873;49.300;8.920;2023-04-24T07:08:40;2.40;;;2.20;;
23400;SDS011;11873;49.300;8.920;2023-04-24T07:13:40;3.93;;;1.80;;
23400;SDS011;11873;49.300;8.920;2023-04-24T07:18:40;1.77;;;1.67;;
23400;SDS011;11873;49.300;8.920;2023-04-24T07:23:41;1.70;;;1.60;;
23400;SDS011;11873;49.300;8.920;2023-04-24T07:28:41;1.30;;;1.20;;
23400;SDS011;11873;49.300;8.920;2023-04-24T07:33:41;1.67;;;1.50;;
23400;SDS011;11873;49.300;8.920;2023-04-24T07:38:42;1.57;;;1.47;;
23400;SDS011;11873;49.300;8.920;2023-04-24T07:43:42;1.53;;;1.43;;
23400;SDS011;11873;49.300;8.920;2023-04-24T07:48:42;5.23;;;3.30;;
23400;SDS011;11873;49.300;8.920;2023-04-24T07:53:43;2.13;;;1.60;;
23400;SDS011;11873;49.300;8.920;2023-04-24T07:58:43;2.87;;;1.57;;
23400;SDS011;11873;49.300;8.920;2023-04-24T08:03:43;1.20;;;1.10;;
23400;SDS011;11873;49.300;8.920;2023-04-24T08:08:43;1.60;;;1.50;;
23400;SDS011;11873;49.300;8.920;2023-04-24T08:13:43;1.50;;;1.20;;
23400;SDS011;11873;49.300;8.920;2023-04-24T08:18:44;1.40;;;1.30;;
23400;SDS011;11873;49.300;8.920;2023-04-24T08:23:44;2.13;;;1.40;;
23400;SDS011;11873;49.300;8.920;2023-04-24T08:28:45;1.23;;;1.17;;
23400;SDS011;11873;49.300;8.920;2023-04-24T08:33:45;2.90;;;1.53;;
23400;SDS011;11873;49.300;8.920;2023-04-24T08:38:45;1.17;;;1.00;;
23400;SDS011;11873;49.300;8.920;2023-04-24T08:43:45;1.83;;;1.20;;
23400;SDS011;11873;49.300;8.920;2023-04-24T08:48:46;1.30;;;1.20;;
23400;SDS011;11873;49.300;8.920;2023-04-24T08:53:46;1.13;;;1.13;;
23400;SDS011;11873;49.300;8.920;2023-04-24T08:58:47;1.20;;;1.20;;
23400;SDS011;11873;49.300;8.920;2023-04-24T09:03:48;1.33;;;1.30;;
23400;SDS011;11873;49.300;8.920;2023-04-24T09:08:48;2.53;;;1.60;;
23400;SDS011;11873;49.300;8.920;2023-04-24T09:13:49;1.27;;;1.20;;
23400;SDS011;11873;49.300;8.920;2023-04-24T09:18:51;1.57;;;1.30;;
23400;SDS011;11873;49.300;8.920;2023-04-24T09:23:58;1.43;;;1.10;;
23400;SDS011;11873;49.300;8.920;2023-04-24T09:28:58;1.30;;;1.30;;
23400;SDS011;11873;49.300;8.920;2023-04-24T09:34:02;1.53;;;1.43;;
23400;SDS011;11873;49.300;8.920;2023-04-24T09:39:07;1.40;;;1.40;;
23400;SDS011;11873;49.300;8.920;2023-04-24T09:44:41;1.57;;;1.47;;
23400;SDS011;11873;49.300;8.920;2023-04-24T09:49:34;1.37;;;1.27;;
23400;SDS011;11873;49.300;8.920;2023-04-24T09:54:34;1.20;;;1.10;;
23400;SDS011;11873;49.300;8.920;2023-04-24T09:59:42;2.10;;;1.50;;
23400;SDS011;11873;49.300;8.920;2023-04-24T10:04:53;3.17;;;1.23;;
23400;SDS011;11873;49.300;8.920;2023-04-24T10:09:54;2.63;;;1.40;;
23400;SDS011;11873;49.300;8.920;2023-04-24T10:14:54;1.30;;;1.20;;
23400;SDS011;11873;49.300;8.920;2023-04-24T10:19:54;0.83;;;0.83;;
23400;SDS011;11873;49.300;8.920;2023-04-24T10:24:55;1.00;;;1.00;;
23400;SDS011;11873;49.300;8.920;2023-04-24T10:29:55;1.33;;;1.30;;
23400;SDS011;11873;49.300;8.920;2023-04-24T10:34:56;1.23;;;1.23;;
23400;SDS011;11873;49.300;8.920;2023-04-24T10:39:56;1.47;;;1.37;;
23400;SDS011;11873;49.300;8.920;2023-04-24T10:44:56;1.60;;;1.50;;
23400;SDS011;11873;49.300;8.920;2023-04-24T10:49:58;2.00;;;1.80;;
23400;SDS011;11873;49.300;8.920;2023-04-24T10:54:59;1.80;;;1.70;;
23400;SDS011;11873;49.300;8.920;2023-04-24T11:00:15;1.90;;;1.80;;
23400;SDS011;11873;49.300;8.920;2023-04-24T11:05:16;2.33;;;1.90;;
23400;SDS011;11873;49.300;8.920;2023-04-24T11:10:28;2.83;;;2.53;;
23400;SDS011;11873;49.300;8.920;2023-04-24T11:15:28;5.23;;;2.37;;
23400;SDS011;11873;49.300;8.920;2023-04-24T11:20:29;2.90;;;2.03;;
23400;SDS011;11873;49.300;8.920;2023-04-24T11:25:30;1.87;;;1.70;;
23400;SDS011;11873;49.300;8.920;2023-04-24T11:30:30;2.17;;;2.07;;
23400;SDS011;11873;49.300;8.920;2023-04-24T11:35:34;2.50;;;2.30;;
23400;SDS011;11873;49.300;8.920;2023-04-24T11:40:35;2.20;;;1.93;;
23400;SDS011;11873;49.300;8.920;2023-04-24T11:45:36;2.33;;;2.10;;
23400;SDS011;11873;49.300;8.920;2023-04-24T11:50:37;2.10;;;1.83;;
23400;SDS011;11873;49.300;8.920;2023-04-24T11:55:37;3.10;;;2.60;;
23400;SDS011;11873;49.300;8.920;2023-04-24T12:00:37;1.90;;;1.67;;
23400;SDS011;11873;49.300;8.920;2023-04-24T12:05:38;1.23;;;1.23;;
23400;SDS011;11873;49.300;8.920;2023-04-24T12:10:38;2.30;;;2.07;;
23400;SDS011;11873;49.300;8.920;2023-04-24T12:15:39;1.73;;;1.50;;
23400;SDS011;11873;49.300;8.920;2023-04-24T12:20:40;2.70;;;2.07;;
23400;SDS011;11873;49.300;8.920;2023-04-24T12:25:40;2.00;;;1.90;;
23400;SDS011;11873;49.300;8.920;2023-04-24T12:30:44;2.30;;;2.10;;
23400;SDS011;11873;49.300;8.920;2023-04-24T12:35:47;2.17;;;2.00;;
23400;SDS011;11873;49.300;8.920;2023-04-24T12:40:47;2.20;;;2.10;;
23400;SDS011;11873;49.300;8.920;2023-04-24T12:45:47;3.43;;;2.10;;
23400;SDS011;11873;49.300;8.920;2023-04-24T12:50:48;3.60;;;2.20;;
23400;SDS011;11873;49.300;8.920;2023-04-24T12:55:48;2.40;;;2.20;;
23400;SDS011;11873;49.300;8.920;2023-04-24T13:00:49;2.60;;;2.40;;
23400;SDS011;11873;49.300;8.920;2023-04-24T13:05:49;3.20;;;2.00;;
23400;SDS011;11873;49.300;8.920;2023-04-24T13:10:49;3.67;;;2.03;;
23400;SDS011;11873;49.300;8.920;2023-04-24T13:15:49;2.17;;;1.87;;
23400;SDS011;11873;49.300;8.920;2023-04-24T13:20:50;1.93;;;1.63;;
23400;SDS011;11873;49.300;8.920;2023-04-24T13:25:50;1.50;;;1.40;;
23400;SDS011;11873;49.300;8.920;2023-04-24T13:30:50;2.23;;;2.03;;
23400;SDS011;11873;49.300;8.920;2023-04-24T13:35:51;2.40;;;2.20;;
23400;SDS011;11873;49.300;8.920;2023-04-24T13:40:51;3.30;;;2.37;;
23400;SDS011;11873;49.300;8.920;2023-04-24T13:45:51;2.90;;;2.50;;
23400;SDS011;11873;49.300;8.920;2023-04-24T13:50:52;2.17;;;2.00;;
23400;SDS011;11873;49.300;8.920;2023-04-24T13:55:52;4.20;;;2.30;;
23400;SDS011;11873;49.300;8.920;2023-04-24T14:00:52;2.47;;;2.20;;
23400;SDS011;11873;49.300;8.920;2023-04-24T14:05:52;2.80;;;2.47;;
23400;SDS011;11873;49.300;8.920;2023-04-24T14:10:52;2.53;;;2.33;;
23400;SDS011;11873;49.300;8.920;2023-04-24T14:15:53;2.20;;;2.00;;
23400;SDS011;11873;49.300;8.920;2023-04-24T14:20:53;2.50;;;2.17;;
23400;SDS011;11873;49.300;8.920;2023-04-24T14:25:53;3.17;;;2.30;;
23400;SDS011;11873;49.300;8.920;2023-04-24T14:30:53;2.47;;;2.03;;
23400;SDS011;11873;49.300;8.920;2023-04-24T14:35:53;2.27;;;2.07;;
23400;SDS011;11873;49.300;8.920;2023-04-24T14:40:53;3.10;;;1.77;;
23400;SDS011;11873;49.300;8.920;2023-04-24T14:45:54;0.70;;;0.70;;
23400;SDS011;11873;49.300;8.920;2023-04-24T14:50:54;1.17;;;1.17;;
23400;SDS011;11873;49.300;8.920;2023-04-24T14:55:54;1.93;;;1.27;;
23400;SDS011;11873;49.300;8.920;2023-04-24T15:00:54;1.60;;;1.50;;
23400;SDS011;11873;49.300;8.920;2023-04-24T15:05:55;3.13;;;2.60;;
23400;SDS011;11873;49.300;8.920;2023-04-24T15:10:55;2.87;;;2.40;;
23400;SDS011;11873;49.300;8.920;2023-04-24T15:15:55;2.20;;;1.90;;
23400;SDS011;11873;49.300;8.920;2023-04-24T15:20:55;2.33;;;2.23;;
23400;SDS011;11873;49.300;8.920;2023-04-24T15:25:56;2.43;;;2.30;;
23400;SDS011;11873;49.300;8.920;2023-04-24T15:30:56;1.97;;;1.87;;
23400;SDS011;11873;49.300;8.920;2023-04-24T15:35:56;2.40;;;2.20;;
23400;SDS011;11873;49.300;8.920;2023-04-24T15:40:56;4.37;;;2.60;;
23400;SDS011;11873;49.300;8.920;2023-04-24T15:45:57;2.13;;;1.93;;
23400;SDS011;11873;49.300;8.920;2023-04-24T15:50:57;3.42;;;2.35;;
23400;SDS011;11873;49.300;8.920;2023-04-24T15:55:57;2.13;;;1.97;;
23400;SDS011;11873;49.300;8.920;2023-04-24T16:00:58;3.10;;;2.70;;
23400;SDS011;11873;49.300;8.920;2023-04-24T16:05:58;2.93;;;2.60;;
23400;SDS011;11873;49.300;8.920;2023-04-24T16:10:59;4.23;;;2.60;;
23400;SDS011;11873;49.300;8.920;2023-04-24T16:15:59;2.60;;;2.40;;
23400;SDS011;11873;49.300;8.920;2023-04-24T16:21:00;2.50;;;2.30;;
23400;SDS011;11873;49.300;8.920;2023-04-24T16:26:00;3.23;;;2.70;;
23400;SDS011;11873;49.300;8.920;2023-04-24T16:31:01;2.50;;;2.30;;
23400;SDS011;11873;49.300;8.920;2023-04-24T16:36:01;2.37;;;2.10;;
23400;SDS011;11873;49.300;8.920;2023-04-24T16:41:02;2.83;;;2.37;;
23400;SDS011;11873;49.300;8.920;2023-04-24T16:46:02;2.17;;;1.97;;
23400;SDS011;11873;49.300;8.920;2023-04-24T16:51:03;2.00;;;1.90;;
23400;SDS011;11873;49.300;8.920;2023-04-24T16:56:03;2.00;;;1.80;;
23400;SDS011;11873;49.300;8.920;2023-04-24T17:01:03;2.40;;;2.07;;
23400;SDS011;11873;49.300;8.920;2023-04-24T17:06:04;2.70;;;2.13;;
23400;SDS011;11873;49.300;8.920;2023-04-24T17:11:04;2.77;;;2.30;;
23400;SDS011;11873;49.300;8.920;2023-04-24T17:16:04;2.30;;;2.10;;
23400;SDS011;11873;49.300;8.920;2023-04-24T17:21:04;2.57;;;2.37;;
23400;SDS011;11873;49.300;8.920;2023-04-24T17:26:05;2.20;;;2.10;;
23400;SDS011;11873;49.300;8.920;2023-04-24T17:31:05;1.87;;;1.77;;
23400;SDS011;11873;49.300;8.920;2023-04-24T17:36:06;2.40;;;2.20;;
23400;SDS011;11873;49.300;8.920;2023-04-24T17:41:06;2.50;;;2.30;;
23400;SDS011;11873;49.300;8.920;2023-04-24T17:46:06;3.25;;;2.40;;
23400;SDS011;11873;49.300;8.920;2023-04-24T17:51:07;2.07;;;1.97;;
23400;SDS011;11873;49.300;8.920;2023-04-24T17:56:07;2.40;;;2.20;;
23400;SDS011;11873;49.300;8.920;2023-04-24T18:01:08;1.90;;;1.80;;
23400;SDS011;11873;49.300;8.920;2023-04-24T18:06:08;4.03;;;2.70;;
23400;SDS011;11873;49.300;8.920;2023-04-24T18:11:09;3.43;;;2.50;;
23400;SDS011;11873;49.300;8.920;2023-04-24T18:16:09;3.77;;;2.60;;
23400;SDS011;11873;49.300;8.920;2023-04-24T18:21:09;3.17;;;2.47;;
23400;SDS011;11873;49.300;8.920;2023-04-24T18:26:10;2.10;;;1.90;;
23400;SDS011;11873;49.300;8.920;2023-04-24T18:31:10;2.40;;;1.80;;
23400;SDS011;11873;49.300;8.920;2023-04-24T18:36:10;2.53;;;2.10;;
23400;SDS011;11873;49.300;8.920;2023-04-24T18:41:11;2.00;;;1.90;;
23400;SDS011;11873;49.300;8.920;2023-04-24T18:46:11;1.60;;;1.50;;
23400;SDS011;11873;49.300;8.920;2023-04-24T18:51:11;1.70;;;1.57;;
23400;SDS011;11873;49.300;8.920;2023-04-24T18:56:11;1.60;;;1.50;;
23400;SDS011;11873;49.300;8.920;2023-04-24T19:01:12;2.37;;;2.17;;
23400;SDS011;11873;49.300;8.920;2023-04-24T19:06:12;1.73;;;1.63;;
23400;SDS011;11873;49.300;8.920;2023-04-24T19:11:13;1.70;;;1.60;;
23400;SDS011;11873;49.300;8.920;2023-04-24T19:16:13;1.77;;;1.67;;
23400;SDS011;11873;49.300;8.920;2023-04-24T19:21:13;1.77;;;1.67;;
23400;SDS011;11873;49.300;8.920;2023-04-24T19:26:14;1.97;;;1.80;;
23400;SDS011;11873;49.300;8.920;2023-04-24T19:31:14;3.13;;;2.07;;
23400;SDS011;11873;49.300;8.920;2023-04-24T19:36:15;1.67;;;1.57;;
23400;SDS011;11873;49.300;8.920;2023-04-24T19:41:15;2.53;;;2.00;;
23400;SDS011;11873;49.300;8.920;2023-04-24T19:46:15;1.90;;;1.70;;
23400;SDS011;11873;49.300;8.920;2023-04-24T19:51:15;2.10;;;1.90;;
23400;SDS011;11873;49.300;8.920;2023-04-24T19:56:16;1.70;;;1.57;;
23400;SDS011;11873;49.300;8.920;2023-04-24T20:01:16;2.93;;;1.90;;
23400;SDS011;11873;49.300;8.920;2023-04-24T20:06:17;2.20;;;1.83;;
23400;SDS011;11873;49.300;8.920;2023-04-24T20:11:17;2.13;;;2.03;;
23400;SDS011;11873;49.300;8.920;2023-04-24T20:16:18;1.80;;;1.70;;
23400;SDS011;11873;49.300;8.920;2023-04-24T20:21:18;2.40;;;2.20;;
23400;SDS011;11873;49.300;8.920;2023-04-24T20:26:18;2.00;;;1.90;;
23400;SDS011;11873;49.300;8.920;2023-04-24T20:31:19;2.33;;;2.00;;
23400;SDS011;11873;49.300;8.920;2023-04-24T20:36:19;1.90;;;1.80;;
23400;SDS011;11873;49.300;8.920;2023-04-24T20:41:19;2.00;;;1.80;;
23400;SDS011;11873;49.300;8.920;2023-04-24T20:46:20;1.87;;;1.77;;
23400;SDS011;11873;49.300;8.920;2023-04-24T20:51:20;2.73;;;2.00;;
23400;SDS011;11873;49.300;8.920;2023-04-24T20:56:21;2.20;;;2.00;;
23400;SDS011;11873;49.300;8.920;2023-04-24T21:01:21;1.93;;;1.83;;
23400;SDS011;11873;49.300;8.920;2023-04-24T21:06:22;2.63;;;2.03;;
23400;SDS011;11873;49.300;8.920;2023-04-24T21:11:22;2.50;;;1.50;;
23400;SDS011;11873;49.300;8.920;2023-04-24T21:16:22;1.80;;;1.70;;
23400;SDS011;11873;49.300;8.920;2023-04-24T21:21:23;2.27;;;1.70;;
23400;SDS011;11873;49.300;8.920;2023-04-24T21:26:23;1.60;;;1.50;;
23400;SDS011;11873;49.300;8.920;2023-04-24T21:31:24;1.70;;;1.60;;
23400;SDS011;11873;49.300;8.920;2023-04-24T21:36:24;1.87;;;1.77;;
23400;SDS011;11873;49.300;8.920;2023-04-24T21:41:24;2.58;;;1.67;;
23400;SDS011;11873;49.300;8.920;2023-04-24T21:46:25;1.80;;;1.70;;
23400;SDS011;11873;49.300;8.920;2023-04-24T21:51:26;1.77;;;1.67;;
23400;SDS011;11873;49.300;8.920;2023-04-24T21:56:26;2.23;;;2.00;;
23400;SDS011;11873;49.300;8.920;2023-04-24T22:01:26;1.83;;;1.73;;
23400;SDS011;11873;49.300;8.920;2023-04-24T22:06:26;1.70;;;1.60;;
23400;SDS011;11873;49.300;8.920;2023-04-24T22:11:26;1.90;;;1.80;;
23400;SDS011;11873;49.300;8.920;2023-04-24T22:16:26;1.83;;;1.73;;
23400;SDS011;11873;49.300;8.920;2023-04-24T22:21:27;2.50;;;1.60;;
23400;SDS011;11873;49.300;8.920;2023-04-24T22:26:27;2.07;;;1.97;;
23400;SDS011;11873;49.300;8.920;2023-04-24T22:31:27;2.50;;;2.10;;
23400;SDS011;11873;49.300;8.920;2023-04-24T22:36:27;2.73;;;2.30;;
23400;SDS011;11873;49.300;8.920;2023-04-24T22:41:27;2.80;;;2.60;;
23400;SDS011;11873;49.300;8.920;2023-04-24T22:46:28;3.73;;;2.70;;
23400;SDS011;11873;49.300;8.920;2023-04-24T22:51:28;3.07;;;2.10;;
23400;SDS011;11873;49.300;8.920;2023-04-24T22:56:28;3.03;;;2.60;;
23400;SDS011;11873;49.300;8.920;2023-04-24T23:01:28;2.50;;;2.30;;
23400;SDS011;11873;49.300;8.920;2023-04-24T23:06:28;2.17;;;2.00;;
23400;SDS011;11873;49.300;8.920;2023-04-24T23:11:29;2.83;;;2.60;;
23400;SDS011;11873;49.300;8.920;2023-04-24T23:16:29;2.47;;;2.27;;
23400;SDS011;11873;49.300;8.920;2023-04-24T23:21:29;2.27;;;2.13;;
23400;SDS011;11873;49.300;8.920;2023-04-24T23:26:30;2.70;;;2.50;;
23400;SDS011;11873;49.300;8.920;2023-04-24T23:31:30;3.00;;;2.63;;
23400;SDS011;11873;49.300;8.920;2023-04-24T23:36:30;2.30;;;2.20;;
23400;SDS011;11873;49.300;8.920;2023-04-24T23:41:30;2.87;;;2.40;;
23400;SDS011;11873;49.300;8.920;2023-04-24T23:46:30;2.60;;;2.40;;
23400;SDS011;11873;49.300;8.920;2023-04-24T23:51:31;3.50;;;2.20;;
23400;SDS011;11873;49.300;8.920;2023-04-24T23:56:31;4.25;;;2.55;;
